Time;durP1;ratioP1;P1;durP2;ratioP2;P2;SDS_P1;SDS_P2;PMS_P1;PMS_P2;Temp;Humidity;BMP_temperature;BMP_pressure;BME280_temperature;BME280_humidity;BME280_pressure;Samples;Min_cycle;Max_cycle;Signal;HPM_P1;HPM_P2
2022/08/18 00:00:13;;;;;;;2.40;1.83;;;19.20;99.90;;;;;;5053735;28;20187;-85
2022/08/18 00:02:39;;;;;;;3.47;2.30;;;19.10;99.90;;;;;;5053250;28;20217;-88
2022/08/18 00:05:05;;;;;;;2.33;1.50;;;19.20;99.90;;;;;;5053403;28;20481;-89
2022/08/18 00:07:32;;;;;;;2.87;2.10;;;19.30;99.90;;;;;;5053840;28;20432;-86
2022/08/18 00:09:59;;;;;;;3.83;3.07;;;19.30;99.90;;;;;;5053800;28;20585;-85
2022/08/18 00:12:29;;;;;;;3.20;2.40;;;19.30;99.90;;;;;;5054137;28;20420;-90
2022/08/18 00:14:56;;;;;;;3.33;2.07;;;19.30;99.90;;;;;;5053724;28;20404;-87
2022/08/18 00:17:23;;;;;;;3.07;2.77;;;19.30;99.90;;;;;;5053573;28;20441;-90
2022/08/18 00:19:48;;;;;;;2.60;2.10;;;19.40;99.90;;;;;;5054612;28;20422;-90
2022/08/18 00:22:17;;;;;;;2.33;1.73;;;19.30;99.90;;;;;;5055334;28;20971;-92
2022/08/18 00:24:49;;;;;;;3.17;2.87;;;19.30;99.90;;;;;;5036562;28;20525;-91
2022/08/18 00:27:18;;;;;;;3.30;2.47;;;19.30;99.90;;;;;;5054076;28;20511;-92
2022/08/18 00:29:43;;;;;;;3.63;3.20;;;19.30;99.90;;;;;;5053921;28;20416;-85
2022/08/18 00:32:15;;;;;;;4.80;2.77;;;19.30;99.90;;;;;;5053711;28;20791;-89
2022/08/18 00:34:41;;;;;;;3.50;3.20;;;19.20;99.90;;;;;;5053754;28;20236;-95
2022/08/18 00:37:06;;;;;;;4.97;3.13;;;19.30;99.90;;;;;;5053730;28;20463;-86
2022/08/18 00:39:33;;;;;;;3.03;2.73;;;19.40;99.90;;;;;;5054132;28;20303;-96
2022/08/18 00:41:59;;;;;;;4.87;3.73;;;19.20;99.90;;;;;;5053970;28;20284;-95
2022/08/18 00:44:24;;;;;;;4.63;3.67;;;19.20;99.90;;;;;;5054254;28;20491;-88
2022/08/18 00:46:50;;;;;;;6.27;4.10;;;19.20;99.90;;;;;;5035812;28;20197;-92
2022/08/18 00:49:17;;;;;;;4.37;3.17;;;19.20;99.90;;;;;;5053649;28;20220;-85
2022/08/18 00:51:49;;;;;;;5.80;3.87;;;19.10;99.90;;;;;;5053172;28;20173;-89
2022/08/18 00:54:21;;;;;;;4.83;3.80;;;19.00;99.90;;;;;;5053821;28;20413;-86
2022/08/18 00:56:52;;;;;;;4.50;3.27;;;19.00;99.90;;;;;;5053772;28;20420;-93
2022/08/18 00:59:42;;;;;;;4.23;3.67;;;19.00;99.90;;;;;;5054324;28;20400;-93
2022/08/18 01:02:11;;;;;;;4.13;3.70;;;18.80;99.90;;;;;;5054123;28;20476;-93
2022/08/18 01:04:48;;;;;;;5.10;4.60;;;18.90;99.90;;;;;;5053303;28;20418;-92
2022/08/18 01:07:23;;;;;;;4.73;3.73;;;18.90;99.90;;;;;;5053169;28;20516;-86
2022/08/18 01:09:50;;;;;;;5.30;4.80;;;19.10;99.90;;;;;;5055469;28;20472;-92
2022/08/18 01:12:17;;;;;;;5.83;4.67;;;19.00;99.90;;;;;;5057169;28;20432;-90
2022/08/18 01:14:43;;;;;;;6.10;4.63;;;19.10;99.90;;;;;;5057827;28;20408;-92
2022/08/18 01:22:55;;;;;;;4.90;4.37;;;18.80;99.90;;;;;;5056890;28;20616;-90
2022/08/18 01:28:05;;;;;;;6.50;5.03;;;18.80;99.90;;;;;;5073851;23;20494;-87
2022/08/18 01:30:43;;;;;;;6.40;4.63;;;18.80;99.90;;;;;;5074881;23;20838;-95
2022/08/18 01:33:11;;;;;;;6.13;5.37;;;18.80;99.90;;;;;;5020367;28;20169;-94
2022/08/18 01:35:41;;;;;;;7.03;5.97;;;18.90;99.90;;;;;;5019831;28;20423;-89
2022/08/18 01:38:07;;;;;;;6.30;5.27;;;19.00;99.90;;;;;;5019745;28;20415;-90
2022/08/18 01:40:33;;;;;;;6.90;4.80;;;19.00;99.90;;;;;;5020144;28;20507;-95
2022/08/18 01:43:04;;;;;;;5.97;5.20;;;19.00;99.90;;;;;;5019443;28;20210;-93
2022/08/18 01:45:32;;;;;;;6.00;5.40;;;18.90;99.90;;;;;;5038041;28;20166;-91
2022/08/18 01:47:58;;;;;;;7.10;5.40;;;18.90;99.90;;;;;;5038008;28;20421;-95
2022/08/18 01:50:24;;;;;;;5.80;5.00;;;18.90;99.90;;;;;;5036216;28;20404;-95
2022/08/18 01:52:52;;;;;;;4.77;4.27;;;18.80;99.90;;;;;;5036885;28;20432;-94
2022/08/18 01:55:18;;;;;;;6.50;5.40;;;18.70;99.90;;;;;;5036685;28;20475;-90
2022/08/18 01:57:44;;;;;;;5.03;4.53;;;18.70;99.90;;;;;;5020069;28;20436;-93
2022/08/18 02:00:15;;;;;;;7.17;5.70;;;18.60;99.90;;;;;;5018956;28;20416;-88
2022/08/18 02:02:41;;;;;;;5.00;4.60;;;18.60;99.90;;;;;;5019715;28;20202;-95
2022/08/18 02:05:15;;;;;;;6.23;5.63;;;18.40;99.90;;;;;;5036769;28;20414;-88
2022/08/18 02:07:41;;;;;;;7.53;5.33;;;18.40;99.90;;;;;;5019052;28;20515;-94
2022/08/18 02:10:09;;;;;;;6.03;5.40;;;18.40;99.90;;;;;;5037285;28;20448;-95
2022/08/18 02:12:35;;;;;;;6.00;4.77;;;18.40;99.90;;;;;;5019757;28;20628;-93
2022/08/18 02:15:00;;;;;;;5.73;5.00;;;18.40;99.90;;;;;;5036700;28;20421;-93
2022/08/18 02:17:26;;;;;;;5.30;4.67;;;18.40;99.90;;;;;;5019033;28;20968;-88
2022/08/18 02:19:52;;;;;;;5.80;5.40;;;18.30;99.90;;;;;;5035291;28;20178;-95
2022/08/18 02:22:19;;;;;;;5.20;4.70;;;18.30;99.90;;;;;;5036119;28;20273;-94
2022/08/18 02:24:45;;;;;;;5.37;4.87;;;18.30;99.90;;;;;;5035899;28;20257;-88
2022/08/18 02:27:13;;;;;;;6.03;5.50;;;18.30;99.90;;;;;;5035882;28;20484;-89
2022/08/18 02:29:38;;;;;;;5.60;4.70;;;18.20;99.90;;;;;;5035799;28;20753;-85
2022/08/18 02:32:05;;;;;;;6.23;5.63;;;18.20;99.90;;;;;;5034852;28;20471;-87
2022/08/18 02:34:31;;;;;;;7.40;4.70;;;18.10;99.90;;;;;;5034732;28;20180;-86
2022/08/18 02:36:58;;;;;;;6.80;5.17;;;18.00;99.90;;;;;;5035103;28;20494;-89
2022/08/18 02:39:24;;;;;;;5.87;4.80;;;18.00;99.90;;;;;;5035656;28;20172;-89
2022/08/18 02:41:50;;;;;;;5.70;5.20;;;18.00;99.90;;;;;;5034840;28;20850;-83
2022/08/18 02:44:15;;;;;;;5.60;5.00;;;18.00;99.90;;;;;;5035364;28;20170;-83
2022/08/18 02:46:41;;;;;;;7.67;5.47;;;17.90;99.90;;;;;;5035177;28;20473;-90
2022/08/18 02:49:06;;;;;;;5.90;4.40;;;17.90;99.90;;;;;;5035175;28;20205;-83
2022/08/18 02:51:32;;;;;;;6.30;5.53;;;17.90;99.90;;;;;;5035409;28;20590;-87
2022/08/18 02:53:58;;;;;;;6.20;4.60;;;17.90;99.90;;;;;;5035475;28;20197;-90
2022/08/18 02:56:26;;;;;;;5.33;4.40;;;17.80;99.90;;;;;;5035319;28;20170;-87
2022/08/18 02:58:58;;;;;;;6.20;5.10;;;17.80;99.90;;;;;;5034769;28;20565;-87
2022/08/18 03:01:27;;;;;;;5.60;4.50;;;17.80;99.90;;;;;;5034704;28;20457;-89
2022/08/18 03:03:54;;;;;;;5.03;4.53;;;17.80;99.90;;;;;;5034712;28;20452;-88
2022/08/18 03:06:21;;;;;;;5.50;4.63;;;17.80;99.90;;;;;;5034714;28;20420;-87
2022/08/18 03:08:48;;;;;;;6.17;5.10;;;17.70;99.90;;;;;;5034704;28;20447;-86
2022/08/18 03:11:16;;;;;;;6.40;4.80;;;17.70;99.90;;;;;;5034442;28;20417;-87
2022/08/18 03:13:41;;;;;;;6.37;5.13;;;17.80;99.90;;;;;;5034709;28;20421;-87
2022/08/18 03:16:07;;;;;;;8.33;5.40;;;17.80;99.90;;;;;;5034418;28;20420;-86
2022/08/18 03:18:33;;;;;;;7.63;6.73;;;17.80;99.90;;;;;;5034460;28;20650;-85
2022/08/18 03:21:11;;;;;;;5.80;4.53;;;17.80;99.90;;;;;;5034074;28;20665;-85
2022/08/18 03:23:39;;;;;;;7.00;4.90;;;17.80;99.90;;;;;;5034339;28;20247;-83
2022/08/18 03:26:08;;;;;;;6.30;5.70;;;17.70;99.90;;;;;;5034350;28;20416;-84
2022/08/18 03:28:33;;;;;;;6.00;4.00;;;17.70;99.90;;;;;;5034309;28;20443;-82
2022/08/18 03:30:59;;;;;;;5.80;4.87;;;17.70;99.90;;;;;;5034079;28;20537;-83
2022/08/18 03:33:24;;;;;;;4.93;4.10;;;17.60;99.90;;;;;;5033996;28;20169;-86
2022/08/18 03:35:51;;;;;;;5.30;4.80;;;17.50;99.90;;;;;;5033764;28;20175;-82
2022/08/18 03:38:16;;;;;;;6.03;5.07;;;17.60;99.90;;;;;;5034176;28;20244;-85
2022/08/18 03:40:42;;;;;;;5.80;4.97;;;17.60;99.90;;;;;;5033956;28;20440;-84
2022/08/18 03:43:07;;;;;;;6.40;5.17;;;17.50;99.90;;;;;;5033830;28;20760;-83
2022/08/18 03:45:34;;;;;;;6.10;5.17;;;17.50;99.90;;;;;;5041880;28;20185;-84
2022/08/18 03:48:00;;;;;;;5.10;4.40;;;17.50;99.90;;;;;;5056003;28;20186;-83
2022/08/18 03:50:28;;;;;;;5.20;4.30;;;17.50;99.90;;;;;;5038497;28;20431;-83
2022/08/18 03:52:58;;;;;;;4.70;4.30;;;17.50;99.90;;;;;;5052237;28;20469;-82
2022/08/18 03:55:26;;;;;;;6.70;5.93;;;17.60;99.90;;;;;;5049604;28;20452;-87
2022/08/18 03:57:54;;;;;;;5.73;5.00;;;17.60;99.90;;;;;;5034027;28;20763;-88
2022/08/18 04:00:19;;;;;;;6.30;5.30;;;17.60;99.90;;;;;;5033808;28;20486;-83
2022/08/18 04:02:45;;;;;;;4.80;4.40;;;17.60;99.90;;;;;;5033676;28;20566;-87
2022/08/18 04:05:12;;;;;;;5.90;4.43;;;17.60;99.90;;;;;;5033255;28;20177;-83
2022/08/18 04:07:38;;;;;;;6.20;4.30;;;17.60;99.90;;;;;;5033792;28;20166;-87
2022/08/18 04:10:05;;;;;;;6.60;5.30;;;17.60;99.90;;;;;;5032267;28;20427;-86
2022/08/18 04:12:31;;;;;;;5.77;5.03;;;17.50;99.90;;;;;;5033537;28;20173;-86
2022/08/18 04:14:57;;;;;;;5.10;4.60;;;17.50;99.90;;;;;;5033400;28;20423;-83
2022/08/18 04:17:23;;;;;;;5.43;4.80;;;17.50;99.90;;;;;;5033548;28;20438;-86
2022/08/18 04:19:54;;;;;;;6.27;5.27;;;17.50;99.90;;;;;;5033172;28;20554;-86
2022/08/18 04:22:20;;;;;;;6.43;5.83;;;17.60;99.90;;;;;;5033255;28;20482;-82
2022/08/18 04:24:46;;;;;;;8.07;5.63;;;17.60;99.90;;;;;;5033308;28;20410;-81
2022/08/18 04:27:12;;;;;;;7.30;5.60;;;17.60;99.90;;;;;;5033298;28;20515;-84
2022/08/18 04:29:40;;;;;;;6.83;5.50;;;17.60;99.90;;;;;;5033316;28;20454;-82
2022/08/18 04:32:06;;;;;;;6.23;5.63;;;17.70;99.90;;;;;;5032960;28;20228;-85
2022/08/18 04:34:32;;;;;;;7.17;5.03;;;17.70;99.90;;;;;;5032879;28;20427;-85
2022/08/18 04:36:58;;;;;;;7.23;6.10;;;17.80;99.90;;;;;;5033271;28;20173;-86
2022/08/18 04:39:24;;;;;;;6.30;5.20;;;17.80;99.90;;;;;;5033047;28;20413;-85
2022/08/18 04:41:50;;;;;;;6.30;5.70;;;17.80;99.90;;;;;;5032874;28;20591;-84
2022/08/18 04:44:16;;;;;;;6.77;5.97;;;17.90;99.90;;;;;;5032659;28;20428;-81
2022/08/18 04:46:54;;;;;;;5.50;5.00;;;18.00;99.90;;;;;;5033038;28;20173;-82
2022/08/18 04:49:24;;;;;;;6.77;5.60;;;18.00;99.90;;;;;;5032992;28;20423;-85
2022/08/18 04:54:37;;;;;;;7.13;6.37;;;18.10;99.90;;;;;;5028821;28;20427;-84
2022/08/18 04:57:15;;;;;;;5.47;4.03;;;18.20;99.90;;;;;;5013125;28;20423;-84
2022/08/18 04:59:44;;;;;;;6.73;5.60;;;18.20;99.90;;;;;;5013192;28;20480;-81
2022/08/18 05:02:10;;;;;;;6.60;5.47;;;18.30;99.90;;;;;;5013077;28;20579;-82
2022/08/18 05:04:39;;;;;;;5.73;5.13;;;18.40;99.90;;;;;;5012801;28;20507;-81
2022/08/18 05:07:07;;;;;;;7.30;6.47;;;18.40;99.90;;;;;;5012318;28;20467;-89
2022/08/18 05:09:34;;;;;;;6.07;5.30;;;18.50;99.90;;;;;;5011773;28;20413;-87
2022/08/18 05:12:02;;;;;;;7.20;5.63;;;18.50;99.90;;;;;;5012399;28;20449;-89
2022/08/18 05:14:28;;;;;;;7.30;6.60;;;18.60;99.90;;;;;;5012187;28;20422;-86
2022/08/18 05:16:59;;;;;;;6.73;5.53;;;18.60;99.90;;;;;;5011739;28;20432;-87
2022/08/18 05:19:25;;;;;;;5.60;4.80;;;18.70;99.90;;;;;;5012707;28;20424;-82
2022/08/18 05:21:53;;;;;;;7.13;6.43;;;18.80;99.90;;;;;;5012669;28;20470;-87
2022/08/18 05:24:20;;;;;;;10.30;7.00;;;18.80;99.90;;;;;;5011404;28;20413;-86
2022/08/18 05:26:47;;;;;;;6.23;5.63;;;18.90;99.90;;;;;;5013021;28;20770;-82
2022/08/18 05:29:13;;;;;;;7.20;5.97;;;19.00;99.90;;;;;;5012966;28;20398;-84
2022/08/18 05:31:39;;;;;;;6.63;5.97;;;19.00;99.90;;;;;;5025052;28;20467;-85
2022/08/18 05:34:14;;;;;;;7.07;6.30;;;19.10;99.90;;;;;;5032314;28;20437;-86
2022/08/18 05:36:43;;;;;;;8.07;7.10;;;19.10;99.90;;;;;;5032738;28;20182;-82
2022/08/18 05:39:20;;;;;;;7.17;6.43;;;19.20;99.90;;;;;;5032545;28;20417;-84
2022/08/18 05:41:57;;;;;;;8.83;6.33;;;19.30;99.90;;;;;;5014782;28;20957;-84
2022/08/18 05:44:28;;;;;;;6.77;6.00;;;19.70;99.90;;;;;;5032532;28;20500;-83
2022/08/18 05:47:09;;;;;;;15.70;7.10;;;19.80;99.90;;;;;;5032507;28;20424;-87
2022/08/18 05:49:35;;;;;;;6.40;5.80;;;20.00;99.90;;;;;;5032061;28;20414;-82
2022/08/18 05:52:37;;;;;;;6.80;6.20;;;20.20;99.90;;;;;;5032357;28;20779;-87
2022/08/18 05:58:34;;;;;;;6.20;5.47;;;19.90;99.90;;;;;;5035950;28;20400;-82
2022/08/18 06:01:03;;;;;;;6.37;5.70;;;19.90;99.90;;;;;;5035993;28;20417;-82
2022/08/18 06:03:47;;;;;;;6.70;5.63;;;20.20;99.90;;;;;;5035522;28;20427;-82
2022/08/18 06:06:19;;;;;;;5.57;5.07;;;20.70;99.90;;;;;;5035722;28;20414;-82
2022/08/18 06:08:52;;;;;;;7.00;6.40;;;21.10;99.90;;;;;;5035908;28;20412;-82
2022/08/18 06:11:18;;;;;;;5.77;5.17;;;21.30;99.90;;;;;;5035744;28;20416;-83
2022/08/18 06:13:43;;;;;;;5.77;5.27;;;21.60;99.90;;;;;;5035758;28;20832;-82
2022/08/18 06:16:19;;;;;;;4.60;4.17;;;22.00;99.90;;;;;;5035712;28;20176;-83
2022/08/18 06:19:17;;;;;;;5.50;4.97;;;21.80;99.90;;;;;;5035362;28;20647;-83
2022/08/18 06:22:02;;;;;;;8.13;6.27;;;21.70;99.90;;;;;;4964739;28;20989;-81
2022/08/18 06:24:43;;;;;;;7.50;6.40;;;21.80;99.90;;;;;;5035434;28;20416;-81
2022/08/18 06:27:33;;;;;;;6.00;5.50;;;21.80;99.90;;;;;;5035482;28;20430;-80
2022/08/18 06:30:09;;;;;;;7.13;6.00;;;21.70;99.90;;;;;;5035470;28;20433;-80
2022/08/18 06:32:51;;;;;;;7.43;6.63;;;22.60;99.90;;;;;;5015638;28;20490;-80
2022/08/18 06:35:32;;;;;;;6.87;5.50;;;24.30;99.90;;;;;;5015185;28;20913;-82
2022/08/18 06:38:40;;;;;;;5.43;4.93;;;24.40;1.00;;;;;;5015564;28;20422;-82
2022/08/18 06:41:22;;;;;;;6.60;5.53;;;24.90;1.00;;;;;;5015385;28;20422;-84
2022/08/18 06:44:01;;;;;;;5.43;4.60;;;25.70;99.90;;;;;;5015362;28;20429;-83
2022/08/18 06:46:52;;;;;;;6.70;4.97;;;25.80;99.90;;;;;;5015232;28;20413;-85
2022/08/18 06:49:23;;;;;;;6.07;4.97;;;26.20;1.00;;;;;;5014752;28;20997;-83
2022/08/18 06:51:49;;;;;;;5.00;4.27;;;26.00;1.00;;;;;;5015103;28;20430;-82
2022/08/18 06:54:20;;;;;;;5.83;5.23;;;24.10;1.00;;;;;;5015158;28;20410;-83
2022/08/18 06:56:48;;;;;;;6.63;6.07;;;22.40;99.90;;;;;;5014953;28;20771;-81
2022/08/18 06:59:22;;;;;;;7.07;6.23;;;21.60;99.90;;;;;;5014866;28;20463;-84
2022/08/18 07:01:52;;;;;;;8.40;7.50;;;21.10;99.90;;;;;;5014259;28;20561;-79
2022/08/18 07:04:37;;;;;;;10.47;8.87;;;21.20;99.90;;;;;;5014261;28;20423;-79
2022/08/18 07:07:31;;;;;;;8.90;8.00;;;21.00;99.90;;;;;;5014558;28;20519;-79
2022/08/18 07:09:57;;;;;;;10.40;7.60;;;20.90;99.90;;;;;;5014852;28;20420;-76
2022/08/18 07:12:26;;;;;;;10.60;9.10;;;20.80;99.90;;;;;;5014811;28;20425;-79
2022/08/18 07:14:58;;;;;;;9.80;8.80;;;20.80;99.90;;;;;;5014633;28;20181;-79
2022/08/18 07:17:31;;;;;;;12.27;9.57;;;20.50;99.90;;;;;;5014699;28;20423;-78
2022/08/18 07:20:20;;;;;;;12.27;9.70;;;20.40;99.90;;;;;;5014341;28;20508;-78
2022/08/18 07:22:57;;;;;;;14.60;11.90;;;20.50;99.90;;;;;;5014521;28;20479;-78
2022/08/18 07:25:26;;;;;;;15.57;12.10;;;20.40;99.90;;;;;;5014538;28;20415;-79
2022/08/18 07:27:55;;;;;;;14.57;11.20;;;20.20;99.90;;;;;;5014502;28;20416;-79
2022/08/18 07:30:25;;;;;;;17.30;11.90;;;20.10;99.90;;;;;;5016011;28;20411;-78
2022/08/18 07:32:56;;;;;;;17.83;12.27;;;20.10;99.90;;;;;;5034161;28;20488;-79
2022/08/18 07:35:57;;;;;;;18.70;12.33;;;20.00;99.90;;;;;;5033944;28;20481;-84
2022/08/18 07:38:32;;;;;;;19.90;12.33;;;19.90;99.90;;;;;;5034231;28;20413;-83
2022/08/18 07:41:10;;;;;;;15.97;11.80;;;19.80;99.90;;;;;;5034088;28;20405;-84
2022/08/18 07:43:52;;;;;;;17.40;12.13;;;19.80;99.90;;;;;;5034026;28;20429;-83
2022/08/18 07:46:28;;;;;;;15.87;11.27;;;19.60;99.90;;;;;;5033971;28;20909;-84
2022/08/18 07:48:55;;;;;;;14.77;11.00;;;19.70;99.90;;;;;;5033739;28;20910;-86
2022/08/18 07:51:28;;;;;;;13.57;9.70;;;19.80;99.90;;;;;;5034010;28;20471;-86
2022/08/18 07:54:11;;;;;;;16.40;10.53;;;19.80;99.90;;;;;;5033730;28;20416;-83
2022/08/18 07:57:05;;;;;;;18.90;10.43;;;19.70;99.90;;;;;;5033782;28;20933;-84
2022/08/18 07:59:38;;;;;;;17.87;11.40;;;19.70;99.90;;;;;;5033790;28;20812;-85
2022/08/18 08:02:27;;;;;;;17.90;11.13;;;19.70;99.90;;;;;;5033547;28;20460;-84
2022/08/18 08:05:18;;;;;;;18.13;11.50;;;19.70;99.90;;;;;;5033358;28;20420;-83
2022/08/18 08:08:00;;;;;;;19.70;11.23;;;19.80;99.90;;;;;;5033687;28;20416;-81
2022/08/18 08:10:31;;;;;;;16.50;10.80;;;19.80;99.90;;;;;;5033625;28;20402;-82
2022/08/18 08:13:27;;;;;;;19.27;10.77;;;19.80;99.90;;;;;;5033644;28;20446;-81
2022/08/18 08:16:13;;;;;;;18.47;11.30;;;19.90;99.90;;;;;;5033520;28;20944;-82
2022/08/18 08:18:55;;;;;;;16.47;10.30;;;19.90;99.90;;;;;;5032436;28;20413;-82
2022/08/18 08:21:27;;;;;;;16.20;9.90;;;19.90;99.90;;;;;;5033424;28;20452;-82
2022/08/18 08:24:11;;;;;;;14.47;9.93;;;19.80;99.90;;;;;;5033371;28;20434;-82
2022/08/18 08:26:49;;;;;;;11.87;9.13;;;20.00;99.90;;;;;;5033338;28;20442;-82
2022/08/18 08:29:52;;;;;;;14.97;10.00;;;20.00;99.90;;;;;;5033312;28;20413;-82
2022/08/18 08:32:29;;;;;;;15.27;10.20;;;20.10;99.90;;;;;;5033199;28;20458;-82
2022/08/18 08:35:02;;;;;;;12.60;9.97;;;20.10;99.90;;;;;;5032846;28;20402;-82
2022/08/18 08:37:45;;;;;;;16.80;9.63;;;20.10;99.90;;;;;;5033220;28;20474;-82
2022/08/18 08:40:34;;;;;;;17.70;10.67;;;20.10;99.90;;;;;;5033210;28;20404;-83
2022/08/18 08:43:30;;;;;;;15.00;10.33;;;20.20;99.90;;;;;;5033013;28;20814;-82
2022/08/18 08:46:08;;;;;;;17.97;10.83;;;20.20;99.90;;;;;;5032086;28;20826;-82
2022/08/18 08:48:40;;;;;;;16.13;11.20;;;20.40;99.90;;;;;;5037914;28;21067;-84
2022/08/18 08:51:42;;;;;;;16.87;12.50;;;20.40;99.90;;;;;;5050582;28;20471;-89
2022/08/18 08:54:35;;;;;;;17.23;9.90;;;20.40;99.90;;;;;;5032279;28;20417;-86
2022/08/18 08:57:02;;;;;;;12.70;10.80;;;20.60;99.90;;;;;;5032218;28;20422;-86
2022/08/18 08:59:28;;;;;;;15.97;10.67;;;20.70;99.90;;;;;;5031891;28;20423;-85
2022/08/18 09:02:09;;;;;;;16.47;11.07;;;20.90;99.90;;;;;;5032042;28;21033;-88
2022/08/18 09:04:58;;;;;;;15.60;10.00;;;21.10;99.90;;;;;;5031818;28;20556;-84
2022/08/18 09:07:33;;;;;;;15.03;10.03;;;21.10;99.90;;;;;;5032084;28;20502;-85
2022/08/18 09:10:59;;;;;;;15.97;10.67;;;21.00;99.90;;;;;;5031870;28;20415;-84
2022/08/18 09:13:33;;;;;;;11.87;9.23;;;21.00;99.90;;;;;;4967318;28;20442;-84
2022/08/18 09:16:20;;;;;;;13.40;9.73;;;21.20;99.90;;;;;;5020749;28;20466;-83
2022/08/18 09:19:20;;;;;;;12.50;11.20;;;21.40;99.90;;;;;;5014895;28;20561;-89
2022/08/18 09:22:13;;;;;;;15.87;10.50;;;21.30;99.90;;;;;;5032197;28;20548;-86
2022/08/18 09:24:48;;;;;;;14.03;10.30;;;21.30;99.90;;;;;;5031703;28;20471;-84
2022/08/18 09:27:40;;;;;;;13.90;11.57;;;21.40;99.90;;;;;;5033226;28;20400;-89
2022/08/18 09:30:27;;;;;;;13.00;9.57;;;21.50;99.90;;;;;;5033568;28;20416;-83
2022/08/18 09:33:18;;;;;;;15.23;10.73;;;21.70;99.90;;;;;;5056596;28;20446;-83
2022/08/18 09:36:06;;;;;;;14.27;9.63;;;21.70;99.90;;;;;;5050250;28;20511;-85
2022/08/18 09:41:36;;;;;;;11.57;9.37;;;21.70;99.90;;;;;;5039029;28;20483;-82
2022/08/18 09:44:09;;;;;;;15.67;10.60;;;21.80;99.90;;;;;;5036240;28;20522;-81
2022/08/18 09:46:43;;;;;;;14.87;10.60;;;22.00;99.90;;;;;;5036452;28;20412;-82
2022/08/18 09:49:23;;;;;;;11.20;8.40;;;22.00;99.90;;;;;;5035846;28;20433;-83
2022/08/18 09:51:52;;;;;;;11.10;9.43;;;21.90;99.90;;;;;;5036134;28;20503;-83
2022/08/18 09:54:20;;;;;;;11.23;9.00;;;22.00;99.90;;;;;;5036086;28;20415;-81
2022/08/18 09:56:52;;;;;;;11.57;9.50;;;22.10;99.90;;;;;;5036033;28;20427;-83
2022/08/18 09:59:33;;;;;;;10.20;9.20;;;22.20;99.90;;;;;;5036052;28;20420;-82
2022/08/18 10:02:12;;;;;;;12.13;9.10;;;22.10;99.90;;;;;;5044107;28;20556;-85
2022/08/18 10:04:49;;;;;;;8.60;7.67;;;22.00;99.90;;;;;;5054245;28;20832;-83
2022/08/18 10:07:34;;;;;;;10.00;9.00;;;22.20;99.90;;;;;;5054744;28;20422;-84
2022/08/18 10:10:06;;;;;;;11.50;9.47;;;22.40;99.90;;;;;;5054453;28;20415;-82
2022/08/18 10:13:00;;;;;;;11.23;8.17;;;22.50;99.90;;;;;;5054773;28;20415;-87
2022/08/18 10:15:39;;;;;;;12.20;11.00;;;22.50;99.90;;;;;;5055106;28;20403;-83
2022/08/18 10:18:43;;;;;;;12.93;11.27;;;23.10;99.90;;;;;;5054051;28;20443;-86
2022/08/18 10:21:19;;;;;;;12.50;10.03;;;24.00;30.10;;;;;;5054263;28;20783;-89
2022/08/18 10:23:50;;;;;;;11.30;9.07;;;24.30;1.00;;;;;;5055026;28;20972;-84
2022/08/18 10:26:32;;;;;;;11.83;9.83;;;24.30;6.60;;;;;;5054900;28;20408;-92
2022/08/18 10:29:00;;;;;;;13.77;9.97;;;24.00;24.50;;;;;;5055342;28;20432;-87
2022/08/18 10:31:26;;;;;;;12.73;10.13;;;24.10;1.00;;;;;;5054796;28;20490;-85
2022/08/18 10:34:08;;;;;;;11.73;10.53;;;24.10;1.00;;;;;;5054496;28;20554;-87
2022/08/18 10:36:52;;;;;;;13.47;9.53;;;24.10;1.00;;;;;;5055189;28;20412;-83
2022/08/18 10:39:25;;;;;;;10.47;8.60;;;24.50;1.00;;;;;;5055798;28;20891;-92
2022/08/18 10:42:09;;;;;;;12.07;9.47;;;24.40;1.00;;;;;;5054620;28;20830;-92
2022/08/18 10:44:40;;;;;;;10.40;9.30;;;24.20;93.40;;;;;;5059341;28;20408;-93
2022/08/18 10:47:06;;;;;;;11.60;8.13;;;24.30;5.20;;;;;;5057075;28;20415;-85
2022/08/18 10:49:32;;;;;;;10.20;8.83;;;24.30;99.90;;;;;;5053798;28;20418;-85
2022/08/18 10:52:17;;;;;;;12.30;9.00;;;24.30;1.00;;;;;;5054767;28;20622;-89
2022/08/18 10:55:05;;;;;;;13.60;8.80;;;24.90;1.00;;;;;;5055140;28;20410;-88
2022/08/18 10:57:51;;;;;;;11.63;8.40;;;26.60;1.00;;;;;;5055228;28;20401;-91
2022/08/18 11:00:19;;;;;;;9.47;7.70;;;27.20;1.00;;;;;;5055571;28;20652;-90
2022/08/18 11:03:09;;;;;;;10.20;8.77;;;26.70;1.00;;;;;;5054127;28;20468;-84
2022/08/18 11:05:35;;;;;;;9.30;8.30;;;25.90;1.00;;;;;;5054044;28;20413;-90
2022/08/18 11:08:04;;;;;;;9.00;8.10;;;25.60;99.90;;;;;;5053517;28;20469;-84
2022/08/18 11:10:53;;;;;;;8.63;7.83;;;26.40;99.90;;;;;;5053979;28;20786;-83
2022/08/18 11:13:31;;;;;;;8.67;7.87;;;26.90;1.00;;;;;;5053636;28;20535;-85
2022/08/18 11:16:09;;;;;;;8.10;7.30;;;26.80;1.00;;;;;;5046549;28;20443;-84
2022/08/18 11:18:50;;;;;;;8.00;7.20;;;26.70;1.00;;;;;;5035797;28;20435;-83
2022/08/18 11:21:29;;;;;;;9.23;8.33;;;26.80;71.90;;;;;;5053898;28;20439;-85
2022/08/18 11:24:14;;;;;;;9.43;7.97;;;26.50;99.90;;;;;;5054482;28;20412;-85
2022/08/18 11:27:04;;;;;;;7.83;6.60;;;27.50;73.60;;;;;;5054537;28;20434;-91
2022/08/18 11:29:39;;;;;;;8.60;7.53;;;26.90;1.00;;;;;;5039015;28;20427;-90
2022/08/18 11:32:06;;;;;;;8.23;7.43;;;27.40;90.50;;;;;;5039168;28;20475;-85
2022/08/18 11:34:40;;;;;;;8.00;7.20;;;28.90;1.00;;;;;;5034025;28;20416;-87
2022/08/18 11:37:18;;;;;;;6.70;6.10;;;29.30;99.90;;;;;;5023999;28;20959;-91
2022/08/18 11:39:51;;;;;;;6.07;5.47;;;30.20;99.90;;;;;;5026391;28;20457;-88
2022/08/18 11:42:24;;;;;;;5.93;5.43;;;29.40;99.90;;;;;;5022114;28;20481;-90
2022/08/18 11:44:52;;;;;;;6.90;6.30;;;28.40;1.00;;;;;;5020047;28;20417;-92
2022/08/18 11:47:21;;;;;;;6.97;6.10;;;28.20;99.90;;;;;;5015295;28;20422;-85
2022/08/18 11:50:09;;;;;;;8.17;7.40;;;27.40;77.60;;;;;;5014616;28;20414;-92
2022/08/18 11:52:50;;;;;;;6.57;5.97;;;26.80;99.90;;;;;;5019354;28;20901;-87
2022/08/18 11:55:33;;;;;;;7.83;7.07;;;26.60;99.90;;;;;;5023130;28;20406;-90
2022/08/18 11:58:01;;;;;;;6.50;5.90;;;26.90;69.50;;;;;;5032664;28;20412;-93
2022/08/18 12:00:44;;;;;;;5.87;5.27;;;26.80;99.90;;;;;;5032107;28;20478;-88
2022/08/18 12:03:20;;;;;;;7.73;6.83;;;26.60;99.90;;;;;;5032875;28;20456;-89
2022/08/18 12:05:50;;;;;;;7.33;5.67;;;26.40;1.00;;;;;;5033843;28;20893;-83
2022/08/18 12:08:21;;;;;;;6.93;6.20;;;26.10;1.00;;;;;;5034747;28;20421;-84
2022/08/18 12:10:47;;;;;;;6.80;6.20;;;26.30;1.00;;;;;;5033105;28;20512;-80
2022/08/18 12:13:22;;;;;;;6.60;6.03;;;27.00;1.00;;;;;;5033932;28;20417;-80
2022/08/18 12:16:11;;;;;;;5.10;4.20;;;27.60;1.00;;;;;;5034222;28;20420;-90
2022/08/18 12:18:37;;;;;;;4.93;4.47;;;28.20;45.40;;;;;;5022500;28;20416;-84
2022/08/18 12:21:04;;;;;;;5.23;4.83;;;27.90;1.00;;;;;;5023716;28;20417;-87
2022/08/18 12:23:33;;;;;;;5.20;4.80;;;27.90;99.90;;;;;;5013803;28;20217;-80
2022/08/18 12:26:01;;;;;;;5.40;4.43;;;27.10;1.00;;;;;;5013953;28;20437;-81
2022/08/18 12:28:27;;;;;;;6.50;5.90;;;26.60;1.00;;;;;;5013832;28;20449;-83
2022/08/18 12:30:53;;;;;;;4.90;4.40;;;27.10;1.00;;;;;;5019723;28;20530;-81
2022/08/18 12:33:18;;;;;;;5.00;4.60;;;28.30;99.90;;;;;;5033174;28;20193;-90
2022/08/18 12:35:44;;;;;;;5.43;4.87;;;28.90;99.90;;;;;;5033553;28;20175;-86
2022/08/18 12:38:12;;;;;;;9.77;8.40;;;29.20;1.00;;;;;;5033314;28;20174;-81
2022/08/18 12:40:38;;;;;;;8.77;7.23;;;28.70;99.90;;;;;;5033177;28;20668;-82
2022/08/18 12:43:04;;;;;;;7.70;7.00;;;29.20;99.90;;;;;;5033032;28;20496;-87
2022/08/18 12:45:29;;;;;;;4.27;3.87;;;28.80;99.90;;;;;;5033188;28;20463;-81
2022/08/18 12:47:55;;;;;;;7.13;4.37;;;28.00;99.90;;;;;;5032731;28;20682;-87
2022/08/18 12:50:21;;;;;;;4.60;4.20;;;27.60;99.90;;;;;;5033138;28;20201;-84
2022/08/18 12:52:47;;;;;;;4.20;3.87;;;27.20;1.00;;;;;;5040865;28;20269;-81
2022/08/18 12:55:13;;;;;;;3.90;3.60;;;26.90;99.90;;;;;;5051905;28;20247;-86
2022/08/18 12:57:38;;;;;;;4.77;3.63;;;26.90;1.00;;;;;;5052493;28;20708;-85
2022/08/18 13:00:07;;;;;;;3.97;3.67;;;26.70;99.90;;;;;;5052637;28;20503;-83
2022/08/18 13:02:32;;;;;;;5.20;4.40;;;26.90;1.00;;;;;;5051907;28;20213;-84
2022/08/18 13:04:58;;;;;;;4.10;3.70;;;26.90;99.90;;;;;;5053641;28;20461;-83
2022/08/18 13:07:23;;;;;;;4.60;4.00;;;26.90;1.00;;;;;;5056797;28;20176;-86
2022/08/18 13:09:49;;;;;;;4.10;3.70;;;26.70;99.90;;;;;;5053264;28;20173;-86
2022/08/18 13:12:16;;;;;;;4.53;4.13;;;27.10;99.90;;;;;;5053342;28;20170;-85
2022/08/18 13:14:41;;;;;;;5.37;4.17;;;27.00;99.90;;;;;;5056521;28;20161;-82
2022/08/18 13:17:08;;;;;;;6.80;4.37;;;26.90;1.00;;;;;;5056011;28;20414;-82
2022/08/18 13:19:33;;;;;;;5.77;4.57;;;27.00;1.00;;;;;;5056435;28;20678;-85
2022/08/18 13:21:59;;;;;;;5.03;4.33;;;26.80;1.00;;;;;;5056362;28;20539;-84
2022/08/18 13:24:24;;;;;;;4.20;3.77;;;26.80;1.00;;;;;;5056452;28;20174;-82
2022/08/18 13:26:56;;;;;;;5.27;4.20;;;27.00;1.00;;;;;;5050806;28;20261;-83
2022/08/18 13:29:22;;;;;;;3.90;3.60;;;28.10;1.00;;;;;;5036371;28;20174;-83